createdAt,value
2023-05-05T00:00:30.228Z,5.20
2023-05-05T00:03:35.551Z,5.17
2023-05-05T00:06:38.864Z,5.40
2023-05-05T00:09:42.020Z,5.20
2023-05-05T00:12:45.241Z,4.70
2023-05-05T00:15:51.927Z,5.03
2023-05-05T00:18:54.988Z,5.27
2023-05-05T00:21:58.031Z,4.97
2023-05-05T00:25:01.192Z,5.30
2023-05-05T00:28:04.348Z,5.03
2023-05-05T00:31:08.981Z,4.63
2023-05-05T00:34:12.114Z,4.73
2023-05-05T00:37:15.257Z,4.23
2023-05-05T00:40:18.752Z,5.13
2023-05-05T00:43:21.861Z,4.80
2023-05-05T00:46:28.498Z,4.60
2023-05-05T00:49:32.037Z,5.40
2023-05-05T00:52:36.022Z,4.40
2023-05-05T00:55:39.197Z,5.20
2023-05-05T00:58:43.695Z,4.67
2023-05-05T01:01:48.489Z,4.83
2023-05-05T01:04:51.774Z,4.83
2023-05-05T01:08:07.267Z,4.30
2023-05-05T01:11:19.054Z,5.17
2023-05-05T01:14:29.498Z,4.70
2023-05-05T01:17:39.968Z,4.13
2023-05-05T01:20:49.451Z,4.83
2023-05-05T01:24:33.723Z,4.70
2023-05-05T01:27:51.261Z,4.07
2023-05-05T01:31:22.869Z,4.40
2023-05-05T01:34:33.499Z,4.27
2023-05-05T01:37:42.366Z,4.20
2023-05-05T01:40:50.252Z,4.40
2023-05-05T01:43:55.544Z,5.00
2023-05-05T01:47:00.843Z,4.10
2023-05-05T01:50:08.244Z,5.37
2023-05-05T01:53:12.831Z,4.40
2023-05-05T01:56:17.199Z,4.43
2023-05-05T01:59:22.149Z,4.33
2023-05-05T02:02:29.386Z,4.83
2023-05-05T02:05:34.327Z,4.40
2023-05-05T02:08:39.907Z,4.13
2023-05-05T02:11:43.359Z,4.13
2023-05-05T02:14:47.849Z,4.00
2023-05-05T02:17:53.246Z,4.50
2023-05-05T02:20:57.725Z,4.30
2023-05-05T02:24:01.226Z,5.00
2023-05-05T02:27:07.533Z,4.70
2023-05-05T02:30:13.012Z,4.83
2023-05-05T02:33:20.481Z,5.00
2023-05-05T02:36:29.340Z,3.90
2023-05-05T02:39:36.661Z,4.10
2023-05-05T02:42:42.662Z,4.40
2023-05-05T02:45:45.732Z,4.07
2023-05-05T02:48:49.049Z,4.50
2023-05-05T02:51:53.646Z,4.27
2023-05-05T02:54:56.786Z,3.90
2023-05-05T02:58:06.734Z,4.40
2023-05-05T03:01:19.969Z,3.90
2023-05-05T03:04:27.751Z,4.37
2023-05-05T03:07:39.543Z,4.37
2023-05-05T03:10:48.593Z,4.47
2023-05-05T03:13:57.254Z,3.97
2023-05-05T03:17:02.569Z,4.43
2023-05-05T03:20:08.290Z,4.33
2023-05-05T03:23:14.652Z,4.30
2023-05-05T03:26:18.901Z,4.33
2023-05-05T03:29:22.041Z,4.33
2023-05-05T03:32:25.584Z,10.33
2023-05-05T03:35:28.789Z,13.03
2023-05-05T03:38:33.265Z,11.50
2023-05-05T03:41:36.338Z,11.00
2023-05-05T03:44:39.309Z,9.77
2023-05-05T03:47:42.422Z,9.70
2023-05-05T03:50:46.296Z,9.57
2023-05-05T03:53:50.728Z,11.03
2023-05-05T03:56:53.724Z,26.07
2023-05-05T03:59:56.720Z,14.83
2023-05-05T04:02:59.950Z,12.60
2023-05-05T04:06:03.287Z,15.93
2023-05-05T04:09:07.727Z,13.27
2023-05-05T04:12:10.863Z,11.40
2023-05-05T04:15:14.037Z,9.40
2023-05-05T04:18:17.098Z,16.23
2023-05-05T04:21:20.162Z,9.10
2023-05-05T04:24:26.007Z,6.10
2023-05-05T04:27:30.419Z,6.50
2023-05-05T04:30:33.555Z,6.13
2023-05-05T04:33:36.883Z,5.17
2023-05-05T04:36:39.951Z,5.53
2023-05-05T04:39:44.471Z,5.87
2023-05-05T04:42:47.439Z,5.00
2023-05-05T04:45:54.013Z,5.90
2023-05-05T04:48:57.085Z,5.10
2023-05-05T04:52:00.612Z,5.43
2023-05-05T04:55:05.540Z,5.37
2023-05-05T04:58:08.692Z,5.40
2023-05-05T05:01:11.812Z,5.33
2023-05-05T05:04:18.579Z,5.10
2023-05-05T05:07:21.771Z,4.93
2023-05-05T05:10:26.173Z,5.50
2023-05-05T05:13:29.122Z,5.40
2023-05-05T05:16:32.163Z,5.07
2023-05-05T05:19:35.479Z,5.80
2023-05-05T05:22:39.052Z,6.03
2023-05-05T05:25:43.811Z,4.90
2023-05-05T05:28:46.901Z,5.03
2023-05-05T05:31:50.304Z,4.97
2023-05-05T05:34:53.429Z,4.73
2023-05-05T05:37:56.430Z,4.27
2023-05-05T05:41:01.212Z,4.60
2023-05-05T05:44:04.207Z,4.50
2023-05-05T05:47:07.353Z,4.80
2023-05-05T05:50:11.052Z,4.60
2023-05-05T05:53:14.270Z,4.90
2023-05-05T05:56:18.725Z,4.67
2023-05-05T05:59:21.877Z,4.60
2023-05-05T06:02:26.548Z,4.37
2023-05-05T06:05:30.095Z,4.37
2023-05-05T06:08:33.303Z,3.80
2023-05-05T06:11:37.839Z,3.77
2023-05-05T06:14:41.273Z,3.83
2023-05-05T06:17:44.437Z,3.60
2023-05-05T06:20:50.787Z,3.90
2023-05-05T06:23:53.977Z,3.27
2023-05-05T06:26:59.366Z,3.37
2023-05-05T06:30:02.359Z,3.30
2023-05-05T06:33:05.625Z,3.23
2023-05-05T06:36:11.253Z,3.17
2023-05-05T06:39:16.054Z,4.50
2023-05-05T06:42:20.824Z,3.77
2023-05-05T06:45:23.909Z,3.10
2023-05-05T06:48:27.052Z,3.20
2023-05-05T06:51:30.239Z,2.93
2023-05-05T06:54:33.429Z,3.40
2023-05-05T06:57:37.919Z,2.97
2023-05-05T07:00:41.535Z,3.10
2023-05-05T07:03:44.810Z,3.03
2023-05-05T07:06:48.000Z,3.00
2023-05-05T07:09:51.174Z,3.03
2023-05-05T07:12:56.061Z,2.93
2023-05-05T07:15:59.121Z,2.70
2023-05-05T07:19:05.794Z,3.20
2023-05-05T07:22:08.950Z,3.07
2023-05-05T07:25:12.065Z,2.60
2023-05-05T07:28:16.795Z,2.70
2023-05-05T07:31:22.073Z,2.27
2023-05-05T07:34:25.563Z,2.50
2023-05-05T07:37:28.690Z,2.30
2023-05-05T07:40:32.130Z,2.20
2023-05-05T07:43:39.268Z,2.30
2023-05-05T07:46:42.898Z,2.17
2023-05-05T07:49:45.957Z,2.73
2023-05-05T07:52:54.021Z,2.30
2023-05-05T07:56:05.453Z,2.27
2023-05-05T07:59:09.925Z,2.73
2023-05-05T08:02:13.945Z,2.20
2023-05-05T08:05:17.519Z,2.20
2023-05-05T08:08:24.943Z,2.73
2023-05-05T08:11:29.651Z,2.17
2023-05-05T08:14:34.453Z,2.10
2023-05-05T08:17:48.812Z,1.87
2023-05-05T08:20:52.946Z,2.00
2023-05-05T08:23:56.056Z,2.50
2023-05-05T08:26:59.293Z,2.83
2023-05-05T08:30:04.523Z,3.13
2023-05-05T08:33:07.632Z,3.93
2023-05-05T08:36:11.655Z,3.40
2023-05-05T08:39:14.773Z,4.90
2023-05-05T08:42:32.758Z,3.80
2023-05-05T08:45:42.042Z,4.13
2023-05-05T08:48:46.450Z,4.50
2023-05-05T08:51:52.176Z,4.50
2023-05-05T08:54:58.702Z,4.37
2023-05-05T08:58:03.462Z,3.90
2023-05-05T09:01:09.247Z,4.30
2023-05-05T09:04:12.540Z,4.80
2023-05-05T09:07:15.740Z,4.40
2023-05-05T09:10:19.587Z,4.47
2023-05-05T09:13:22.781Z,4.50
2023-05-05T09:16:27.317Z,5.03
2023-05-05T09:19:30.494Z,5.37
2023-05-05T09:22:37.003Z,5.67
2023-05-05T09:25:40.535Z,6.07
2023-05-05T09:28:53.589Z,6.90
2023-05-05T09:32:09.058Z,6.60
2023-05-05T09:35:12.447Z,6.70
2023-05-05T09:38:15.493Z,6.97
2023-05-05T09:41:37.926Z,6.30
2023-05-05T09:44:41.369Z,6.77
2023-05-05T09:47:46.875Z,6.03
2023-05-05T09:50:50.188Z,6.53
2023-05-05T09:53:53.534Z,6.50
2023-05-05T09:56:57.456Z,6.13
2023-05-05T10:00:01.801Z,6.57
2023-05-05T10:03:06.798Z,5.80
2023-05-05T10:06:10.015Z,6.03
2023-05-05T10:09:13.058Z,6.60
2023-05-05T10:12:16.357Z,7.13
2023-05-05T10:15:20.094Z,5.87
2023-05-05T10:18:25.860Z,6.20
2023-05-05T10:21:34.653Z,5.90
2023-05-05T10:24:40.898Z,6.70
2023-05-05T10:27:44.822Z,6.80
2023-05-05T10:30:53.449Z,6.53
2023-05-05T10:34:04.626Z,6.80
2023-05-05T10:37:08.515Z,6.30
2023-05-05T10:40:12.168Z,6.20
2023-05-05T10:43:15.605Z,6.23
2023-05-05T10:46:19.353Z,6.80
2023-05-05T10:49:34.582Z,6.03
2023-05-05T10:52:43.192Z,6.27
2023-05-05T10:55:55.330Z,6.53
2023-05-05T10:59:00.806Z,7.40
2023-05-05T11:02:19.990Z,6.53
2023-05-05T11:05:24.736Z,5.90
2023-05-05T11:08:28.228Z,6.13
2023-05-05T11:12:04.564Z,6.33
2023-05-05T11:15:38.036Z,6.10
2023-05-05T11:18:44.492Z,5.67
2023-05-05T11:22:03.111Z,4.90
2023-05-05T11:25:41.147Z,4.53
2023-05-05T11:29:04.767Z,5.83
2023-05-05T11:32:15.745Z,5.33
2023-05-05T11:35:19.088Z,5.87
2023-05-05T11:38:27.488Z,5.47
2023-05-05T11:42:13.767Z,4.87
2023-05-05T11:45:24.220Z,4.67
2023-05-05T11:48:27.698Z,4.23
2023-05-05T11:51:31.045Z,4.50
2023-05-05T11:54:36.378Z,3.97
2023-05-05T11:57:39.598Z,3.90
2023-05-05T12:00:42.779Z,3.80
2023-05-05T12:03:46.374Z,4.20
2023-05-05T12:06:50.215Z,3.90
2023-05-05T12:09:55.135Z,3.70
2023-05-05T12:12:58.280Z,3.63
2023-05-05T12:16:10.122Z,4.43
2023-05-05T12:19:14.498Z,3.90
2023-05-05T12:22:22.403Z,3.67
2023-05-05T12:25:27.049Z,7.13
2023-05-05T12:28:44.754Z,7.03
2023-05-05T12:31:47.992Z,5.87
2023-05-05T12:34:54.484Z,6.13
2023-05-05T12:37:58.448Z,6.20
2023-05-05T12:45:28.379Z,7.10
2023-05-05T12:48:31.964Z,6.87
2023-05-05T12:51:36.605Z,6.33
2023-05-05T12:54:54.839Z,6.00
2023-05-05T12:58:02.234Z,5.60
2023-05-05T13:01:12.966Z,6.30
2023-05-05T13:04:16.606Z,7.20
2023-05-05T13:07:21.340Z,6.53
2023-05-05T13:10:25.382Z,6.70
2023-05-05T13:13:28.596Z,6.73
2023-05-05T13:16:34.004Z,6.00
2023-05-05T13:19:42.050Z,5.60
2023-05-05T13:22:45.906Z,6.00
2023-05-05T13:25:49.041Z,5.80
2023-05-05T13:28:52.223Z,7.40
2023-05-05T13:31:56.683Z,5.60
2023-05-05T13:34:59.803Z,6.47
2023-05-05T13:38:03.023Z,6.93
2023-05-05T13:41:06.330Z,6.47
2023-05-05T13:44:09.430Z,6.00
2023-05-05T13:47:14.130Z,6.50
2023-05-05T13:50:18.410Z,30.93
2023-05-05T13:53:21.802Z,48.80
2023-05-05T13:56:26.371Z,99.00
2023-05-05T13:59:30.088Z,65.83
2023-05-05T14:02:34.634Z,61.20
2023-05-05T14:05:42.614Z,55.63
2023-05-05T14:08:46.291Z,65.53
2023-05-05T14:11:49.522Z,39.30
2023-05-05T14:14:52.818Z,46.50
2023-05-05T14:17:58.119Z,40.77
2023-05-05T14:21:01.390Z,32.03
2023-05-05T14:24:04.701Z,35.90
2023-05-05T14:27:08.125Z,35.73
2023-05-05T14:30:12.119Z,27.03
2023-05-05T14:33:17.073Z,29.13
2023-05-05T14:36:20.957Z,23.10
2023-05-05T14:39:24.033Z,11.80
2023-05-05T14:42:27.329Z,14.70
2023-05-05T14:45:30.767Z,9.07
2023-05-05T14:48:36.088Z,12.87
2023-05-05T14:51:39.151Z,9.17
2023-05-05T14:54:42.308Z,8.47
2023-05-05T14:57:45.417Z,6.37
2023-05-05T15:00:48.483Z,8.43
2023-05-05T15:03:54.020Z,11.77
2023-05-05T15:06:57.184Z,13.30
2023-05-05T15:10:00.412Z,14.60
2023-05-05T15:13:03.535Z,15.73
2023-05-05T15:16:07.481Z,14.27
2023-05-05T15:19:11.993Z,15.97
2023-05-05T15:22:15.156Z,18.70
2023-05-05T15:25:19.365Z,18.27
2023-05-05T15:28:22.439Z,17.63
2023-05-05T15:31:25.559Z,14.20
2023-05-05T15:34:30.011Z,29.70
2023-05-05T15:37:33.226Z,26.53
2023-05-05T15:40:40.583Z,23.57
2023-05-05T15:43:43.674Z,22.50
2023-05-05T15:46:48.337Z,21.80
2023-05-05T15:49:55.043Z,22.20
2023-05-05T15:52:59.124Z,25.77
2023-05-05T15:56:02.890Z,22.20
2023-05-05T15:59:05.965Z,16.53
2023-05-05T16:02:09.195Z,14.83
2023-05-05T16:05:14.547Z,12.20
2023-05-05T16:08:17.546Z,10.77
2023-05-05T16:11:22.462Z,9.20
2023-05-05T16:14:25.726Z,10.00
2023-05-05T16:17:29.124Z,9.50
2023-05-05T16:20:34.007Z,8.00
2023-05-05T16:23:37.076Z,7.10
2023-05-05T16:26:40.118Z,7.17
2023-05-05T16:29:43.149Z,7.20
2023-05-05T16:32:47.534Z,7.43
2023-05-05T16:35:51.989Z,7.60
2023-05-05T16:38:55.528Z,6.20
2023-05-05T16:41:58.728Z,6.30
2023-05-05T16:45:01.820Z,6.37
2023-05-05T16:48:08.220Z,6.40
2023-05-05T16:51:13.624Z,6.60
2023-05-05T16:54:16.774Z,5.50
2023-05-05T16:57:19.862Z,6.80
2023-05-05T17:00:22.918Z,7.50
2023-05-05T17:03:26.499Z,8.83
2023-05-05T17:06:33.245Z,9.03
2023-05-05T17:09:36.285Z,8.70
2023-05-05T17:12:39.790Z,8.40
2023-05-05T17:15:44.306Z,9.90
2023-05-05T17:18:47.829Z,8.03
2023-05-05T17:21:52.422Z,8.17
2023-05-05T17:24:55.486Z,9.40
2023-05-05T17:27:58.700Z,7.30
2023-05-05T17:31:02.141Z,7.37
2023-05-05T17:34:05.165Z,6.40
2023-05-05T17:37:10.492Z,6.10
2023-05-05T17:40:13.845Z,6.17
2023-05-05T17:43:17.080Z,6.70
2023-05-05T17:46:20.310Z,7.73
2023-05-05T17:49:25.356Z,7.70
2023-05-05T17:52:29.949Z,5.70
2023-05-05T17:55:33.026Z,6.10
2023-05-05T17:58:36.066Z,8.23
2023-05-05T18:01:39.111Z,6.40
2023-05-05T18:04:42.543Z,8.00
2023-05-05T18:07:47.053Z,5.60
2023-05-05T18:10:50.092Z,7.53
2023-05-05T18:13:53.227Z,5.53
2023-05-05T18:16:56.391Z,5.07
2023-05-05T18:19:59.471Z,4.90
2023-05-05T18:23:03.929Z,5.50
2023-05-05T18:26:07.313Z,5.17
2023-05-05T18:29:10.694Z,5.30
2023-05-05T18:32:13.867Z,4.90
2023-05-05T18:35:17.315Z,4.90
2023-05-05T18:38:21.799Z,5.30
2023-05-05T18:41:24.847Z,4.70
2023-05-05T18:44:28.019Z,4.80
2023-05-05T18:47:31.209Z,7.30
2023-05-05T18:50:34.362Z,5.40
2023-05-05T18:53:38.895Z,5.70
2023-05-05T18:56:42.957Z,7.00
2023-05-05T18:59:46.094Z,6.50
2023-05-05T19:02:49.199Z,7.80
2023-05-05T19:05:52.379Z,7.87
2023-05-05T19:08:57.361Z,9.10
2023-05-05T19:12:00.496Z,9.13
2023-05-05T19:15:03.612Z,8.23
2023-05-05T19:18:06.913Z,7.67
2023-05-05T19:21:10.019Z,7.93
2023-05-05T19:24:14.600Z,9.23
2023-05-05T19:27:17.898Z,9.00
2023-05-05T19:30:21.089Z,8.50
2023-05-05T19:33:24.574Z,8.60
2023-05-05T19:36:27.825Z,8.57
2023-05-05T19:39:32.621Z,7.73
2023-05-05T19:42:35.844Z,7.30
2023-05-05T19:45:39.071Z,7.93
2023-05-05T19:48:42.227Z,8.17
2023-05-05T19:51:47.635Z,8.67
2023-05-05T19:54:52.173Z,9.93
2023-05-05T19:57:55.255Z,9.87
2023-05-05T20:00:58.382Z,10.47
2023-05-05T20:04:01.517Z,11.80
2023-05-05T20:07:05.050Z,9.30
2023-05-05T20:10:13.312Z,9.97
2023-05-05T20:13:16.834Z,9.10
2023-05-05T20:16:20.164Z,10.27
2023-05-05T20:19:23.329Z,9.10
2023-05-05T20:22:27.142Z,10.87
2023-05-05T20:25:32.020Z,9.90
2023-05-05T20:28:35.315Z,10.90
2023-05-05T20:31:38.582Z,10.60
2023-05-05T20:34:41.607Z,10.40
2023-05-05T20:37:45.839Z,9.60
2023-05-05T20:40:50.698Z,11.13
2023-05-05T20:43:53.818Z,11.10
2023-05-05T20:46:56.947Z,10.90
2023-05-05T20:50:00.082Z,9.50
2023-05-05T20:53:03.235Z,9.97
2023-05-05T20:56:09.090Z,10.17
2023-05-05T20:59:12.419Z,10.00
2023-05-05T21:02:15.459Z,10.10
2023-05-05T21:05:18.645Z,9.77
2023-05-05T21:08:21.824Z,10.10
2023-05-05T21:11:26.333Z,9.10
2023-05-05T21:14:29.451Z,10.40
2023-05-05T21:17:32.523Z,9.03
2023-05-05T21:20:36.374Z,11.53
2023-05-05T21:23:39.487Z,11.40
2023-05-05T21:26:45.400Z,11.67
2023-05-05T21:29:52.178Z,11.70
2023-05-05T21:32:55.231Z,12.70
2023-05-05T21:35:58.305Z,10.67
2023-05-05T21:39:02.129Z,11.73
2023-05-05T21:42:06.721Z,11.77
2023-05-05T21:45:11.660Z,11.17
2023-05-05T21:48:14.908Z,10.10
2023-05-05T21:51:18.046Z,11.50
2023-05-05T21:54:21.066Z,11.10
2023-05-05T21:57:25.517Z,11.90
2023-05-05T22:00:28.606Z,10.00
2023-05-05T22:03:31.798Z,10.93
2023-05-05T22:06:35.584Z,10.60
2023-05-05T22:09:38.625Z,10.60
2023-05-05T22:12:43.162Z,11.27
2023-05-05T22:15:47.427Z,9.87
2023-05-05T22:18:51.526Z,11.90
2023-05-05T22:21:55.080Z,10.13
2023-05-05T22:24:58.110Z,9.23
2023-05-05T22:28:02.646Z,9.63
2023-05-05T22:31:05.780Z,8.60
2023-05-05T22:34:09.189Z,9.47
2023-05-05T22:37:12.320Z,8.43
2023-05-05T22:40:15.397Z,8.60
2023-05-05T22:43:20.164Z,8.20
2023-05-05T22:46:23.323Z,9.13
2023-05-05T22:49:26.565Z,8.70
2023-05-05T22:52:29.540Z,8.90
2023-05-05T22:55:32.635Z,8.97
2023-05-05T22:58:37.105Z,8.50
2023-05-05T23:01:40.245Z,9.17
2023-05-05T23:04:44.892Z,7.83
2023-05-05T23:07:48.131Z,8.10
2023-05-05T23:10:51.254Z,8.13
2023-05-05T23:13:55.764Z,9.30
2023-05-05T23:16:59.325Z,9.20
2023-05-05T23:20:02.753Z,10.00
2023-05-05T23:23:05.909Z,8.80
2023-05-05T23:26:09.037Z,9.97
2023-05-05T23:29:13.500Z,9.53
2023-05-05T23:32:16.618Z,9.20
2023-05-05T23:35:19.788Z,10.27
2023-05-05T23:38:22.803Z,9.33
2023-05-05T23:41:25.860Z,9.00
2023-05-05T23:44:31.102Z,9.50
2023-05-05T23:47:34.272Z,8.83
2023-05-05T23:50:37.418Z,9.80
2023-05-05T23:53:40.497Z,9.63
2023-05-05T23:56:43.676Z,9.13
2023-05-05T23:59:48.115Z,9.83
